createdAt,value
2017-09-22T00:02:23.949Z,12.05
2017-09-22T00:04:54.850Z,12.16
2017-09-22T00:07:26.268Z,12.18
2017-09-22T00:09:56.773Z,12.11
2017-09-22T00:12:27.300Z,12.14
2017-09-22T00:14:57.996Z,12.10
2017-09-22T00:17:39.726Z,11.93
2017-09-22T00:20:11.181Z,11.95
2017-09-22T00:22:41.832Z,11.91
2017-09-22T00:25:12.609Z,11.89
2017-09-22T00:27:47.523Z,11.88
2017-09-22T00:30:19.173Z,11.90
2017-09-22T00:32:50.923Z,11.90
2017-09-22T00:35:22.340Z,11.85
2017-09-22T00:37:53.022Z,11.88
2017-09-22T00:40:23.740Z,11.92
2017-09-22T00:42:55.131Z,11.91
2017-09-22T00:45:26.001Z,11.76
2017-09-22T00:47:57.709Z,11.74
2017-09-22T00:50:28.820Z,11.81
2017-09-22T00:53:02.272Z,11.77
2017-09-22T00:55:33.377Z,11.79
2017-09-22T00:58:04.422Z,11.81
2017-09-22T01:00:37.069Z,11.83
2017-09-22T01:03:08.974Z,11.81
2017-09-22T01:05:39.946Z,11.78
2017-09-22T01:08:11.144Z,11.76
2017-09-22T01:10:42.808Z,11.77
2017-09-22T01:13:14.007Z,11.85
2017-09-22T01:15:45.896Z,11.86
2017-09-22T01:18:17.022Z,11.79
2017-09-22T01:20:48.019Z,11.81
2017-09-22T01:23:20.289Z,11.77
2017-09-22T01:25:51.243Z,11.73
2017-09-22T01:28:25.736Z,11.75
2017-09-22T01:30:56.540Z,11.78
2017-09-22T01:33:27.738Z,11.72
2017-09-22T01:35:58.930Z,11.73
2017-09-22T01:38:30.414Z,11.74
2017-09-22T01:41:01.495Z,11.77
2017-09-22T01:43:36.666Z,11.69
2017-09-22T01:46:13.361Z,11.71
2017-09-22T01:48:45.463Z,11.69
2017-09-22T01:51:17.275Z,11.68
2017-09-22T01:53:49.234Z,11.61
2017-09-22T01:56:24.033Z,11.53
2017-09-22T01:58:55.888Z,11.53
2017-09-22T02:01:27.785Z,11.51
2017-09-22T02:04:01.496Z,11.50
2017-09-22T02:06:34.443Z,11.47
2017-09-22T02:09:10.604Z,11.40
2017-09-22T02:11:43.489Z,11.43
2017-09-22T02:14:19.097Z,11.46
2017-09-22T02:16:55.755Z,11.51
2017-09-22T02:19:27.951Z,11.59
2017-09-22T02:22:00.105Z,11.66
2017-09-22T02:24:32.174Z,11.61
2017-09-22T02:27:04.000Z,11.63
2017-09-22T02:29:37.543Z,11.62
2017-09-22T02:32:08.845Z,11.59
2017-09-22T02:34:44.893Z,11.56
2017-09-22T02:37:22.932Z,11.54
2017-09-22T02:39:56.101Z,11.62
2017-09-22T02:42:29.422Z,11.62
2017-09-22T02:45:03.760Z,11.52
2017-09-22T02:47:38.739Z,11.52
2017-09-22T02:50:09.750Z,11.52
2017-09-22T02:52:41.020Z,11.46
2017-09-22T02:55:13.034Z,11.40
2017-09-22T02:57:45.290Z,11.38
2017-09-22T03:00:16.764Z,11.38
2017-09-22T03:02:56.021Z,11.26
2017-09-22T03:05:37.423Z,11.29
2017-09-22T03:08:13.538Z,11.27
2017-09-22T03:10:44.872Z,11.24
2017-09-22T03:13:15.976Z,11.13
2017-09-22T03:15:47.445Z,11.13
2017-09-22T03:18:19.346Z,11.18
2017-09-22T03:23:36.527Z,11.08
2017-09-22T03:26:10.060Z,11.15
2017-09-22T03:28:43.864Z,11.15
2017-09-22T03:31:20.004Z,11.23
2017-09-22T03:33:57.701Z,11.22
2017-09-22T03:36:34.431Z,11.34
2017-09-22T03:39:11.178Z,11.36
2017-09-22T03:41:41.852Z,11.36
2017-09-22T03:44:13.648Z,11.32
2017-09-22T03:46:45.307Z,11.25
2017-09-22T03:49:16.737Z,11.22
2017-09-22T03:51:48.025Z,11.17
2017-09-22T03:54:20.343Z,11.27
2017-09-22T03:56:51.475Z,11.28
2017-09-22T03:59:23.519Z,11.08
2017-09-22T04:01:54.493Z,11.16
2017-09-22T04:04:25.842Z,11.22
2017-09-22T04:06:57.226Z,11.18
2017-09-22T04:09:29.001Z,11.17
2017-09-22T04:12:00.102Z,11.10
2017-09-22T04:14:31.882Z,11.16
2017-09-22T04:17:03.113Z,11.19
2017-09-22T04:19:34.772Z,11.20
2017-09-22T04:22:09.966Z,11.22
2017-09-22T04:24:41.957Z,11.18
2017-09-22T04:27:13.919Z,11.13
2017-09-22T04:29:45.138Z,11.16
2017-09-22T04:32:16.547Z,11.07
2017-09-22T04:34:47.826Z,11.06
2017-09-22T04:37:19.628Z,10.99
2017-09-22T04:39:51.175Z,11.06
2017-09-22T04:42:22.158Z,11.05
2017-09-22T04:44:54.800Z,11.11
2017-09-22T04:47:26.003Z,11.12
2017-09-22T04:49:57.324Z,11.16
2017-09-22T04:52:28.508Z,11.15
2017-09-22T04:54:59.549Z,11.11
2017-09-22T04:57:32.371Z,11.16
2017-09-22T05:00:03.993Z,11.20
2017-09-22T05:02:34.694Z,11.15
2017-09-22T05:05:06.633Z,11.20
2017-09-22T05:07:37.936Z,11.28
2017-09-22T05:10:09.335Z,11.34
2017-09-22T05:12:43.103Z,11.36
2017-09-22T05:15:14.131Z,11.31
2017-09-22T05:17:46.258Z,11.32
2017-09-22T05:20:18.753Z,11.38
2017-09-22T05:22:50.996Z,11.48
2017-09-22T05:25:22.040Z,11.52
2017-09-22T05:27:53.961Z,11.64
2017-09-22T05:30:25.557Z,11.85
2017-09-22T05:32:56.717Z,11.84
2017-09-22T05:35:27.752Z,11.93
2017-09-22T05:37:59.810Z,12.11
2017-09-22T05:40:32.498Z,12.31
2017-09-22T05:43:12.149Z,12.48
2017-09-22T05:45:43.015Z,12.56
2017-09-22T05:48:15.344Z,12.77
2017-09-22T05:50:46.850Z,13.00
2017-09-22T05:53:18.679Z,13.21
2017-09-22T05:55:49.668Z,13.38
2017-09-22T05:58:21.437Z,13.58
2017-09-22T06:00:53.329Z,13.72
2017-09-22T06:03:26.471Z,13.92
2017-09-22T06:05:58.311Z,14.09
2017-09-22T06:08:29.781Z,14.16
2017-09-22T06:11:01.256Z,14.37
2017-09-22T06:13:33.767Z,14.59
2017-09-22T06:16:05.495Z,14.80
2017-09-22T06:18:36.128Z,14.94
2017-09-22T06:21:06.692Z,15.13
2017-09-22T06:23:37.600Z,15.28
2017-09-22T06:26:09.091Z,15.43
2017-09-22T06:28:39.814Z,15.63
2017-09-22T06:31:10.531Z,15.72
2017-09-22T06:33:41.974Z,15.91
2017-09-22T06:36:13.165Z,16.09
2017-09-22T06:38:45.280Z,16.24
2017-09-22T06:41:17.436Z,16.42
2017-09-22T06:43:49.065Z,16.59
2017-09-22T06:46:20.042Z,16.78
2017-09-22T06:48:50.932Z,16.92
2017-09-22T06:51:22.433Z,17.01
2017-09-22T06:53:54.184Z,17.08
2017-09-22T06:56:24.875Z,17.17
2017-09-22T06:58:55.921Z,17.27
2017-09-22T07:01:27.351Z,17.40
2017-09-22T07:03:58.849Z,17.60
2017-09-22T07:06:30.008Z,17.80
2017-09-22T07:09:02.082Z,17.99
2017-09-22T07:11:34.064Z,18.17
2017-09-22T07:14:09.576Z,18.39
2017-09-22T07:16:41.531Z,18.53
2017-09-22T07:19:13.654Z,18.68
2017-09-22T07:21:45.385Z,18.73
2017-09-22T07:24:18.600Z,18.84
2017-09-22T07:26:50.094Z,18.85
2017-09-22T07:29:24.248Z,18.82
2017-09-22T07:31:55.402Z,18.79
2017-09-22T07:34:26.512Z,18.80
2017-09-22T07:36:59.513Z,18.77
2017-09-22T07:39:33.402Z,18.75
2017-09-22T07:42:06.523Z,18.79
2017-09-22T07:44:38.203Z,18.82
2017-09-22T07:47:09.917Z,18.78
2017-09-22T07:49:41.129Z,18.53
2017-09-22T07:52:13.001Z,18.63
2017-09-22T07:54:44.499Z,18.68
2017-09-22T07:57:16.692Z,19.04
2017-09-22T07:59:48.473Z,19.40
2017-09-22T08:02:20.803Z,19.68
2017-09-22T08:04:51.427Z,19.84
2017-09-22T08:07:23.062Z,19.56
2017-09-22T08:09:54.421Z,19.65
2017-09-22T08:12:26.641Z,19.88
2017-09-22T08:14:58.523Z,20.15
2017-09-22T08:17:31.251Z,20.42
2017-09-22T08:20:02.330Z,20.98
2017-09-22T08:22:35.934Z,21.33
2017-09-22T08:25:16.146Z,21.63
2017-09-22T08:27:50.048Z,21.55
2017-09-22T08:30:22.791Z,21.89
2017-09-22T08:32:53.675Z,21.61
2017-09-22T08:35:34.661Z,21.55
2017-09-22T08:38:12.238Z,21.62
2017-09-22T08:40:50.146Z,21.70
2017-09-22T08:43:21.434Z,21.74
2017-09-22T08:45:54.328Z,21.75
2017-09-22T08:48:28.401Z,22.17
2017-09-22T08:51:02.811Z,22.41
2017-09-22T08:53:53.527Z,22.46
2017-09-22T08:56:56.427Z,22.45
2017-09-22T08:59:45.333Z,22.27
2017-09-22T09:09:24.132Z,22.27
2017-09-22T09:20:06.508Z,22.49
2017-09-22T09:26:35.584Z,22.75
2017-09-22T09:29:08.249Z,22.63
2017-09-22T09:32:21.247Z,22.59
2017-09-22T09:46:26.185Z,22.74
2017-09-22T09:49:18.826Z,22.73
2017-09-22T09:55:10.370Z,23.36
2017-09-22T10:02:17.024Z,24.44
2017-09-22T10:05:02.678Z,23.98
2017-09-22T10:29:55.410Z,24.48
2017-09-22T10:50:14.697Z,24.26
2017-09-22T10:59:35.694Z,24.43
2017-09-22T11:02:15.622Z,24.80
2017-09-22T11:12:59.050Z,25.02
2017-09-22T11:20:33.407Z,25.68
2017-09-22T11:26:10.611Z,25.07
2017-09-22T11:28:44.154Z,24.94
2017-09-22T11:31:37.829Z,25.45
2017-09-22T11:34:21.030Z,25.82
2017-09-22T11:36:55.690Z,25.69
2017-09-22T11:40:03.808Z,25.62
2017-09-22T11:42:47.130Z,25.32
2017-09-22T11:45:28.270Z,25.19
2017-09-22T11:48:25.000Z,24.93
2017-09-22T12:02:51.078Z,25.41
2017-09-22T12:18:00.631Z,25.37
2017-09-22T12:21:10.346Z,25.54
2017-09-22T12:24:11.645Z,25.41
2017-09-22T12:35:28.425Z,25.89
2017-09-22T12:56:47.587Z,26.49
2017-09-22T13:03:19.830Z,26.58
2017-09-22T13:08:44.098Z,26.17
2017-09-22T13:15:01.519Z,26.74
2017-09-22T13:21:49.592Z,26.21
2017-09-22T13:24:21.550Z,26.45
2017-09-22T13:35:54.877Z,26.30
2017-09-22T13:38:49.051Z,26.37
2017-09-22T13:41:28.693Z,26.70
2017-09-22T13:44:04.921Z,26.27
2017-09-22T13:47:04.328Z,26.63
2017-09-22T13:49:35.902Z,26.45
2017-09-22T13:52:39.391Z,26.44
2017-09-22T14:07:17.589Z,25.99
2017-09-22T14:16:30.434Z,25.87
2017-09-22T14:23:07.948Z,25.75
2017-09-22T14:25:39.838Z,25.99
2017-09-22T14:28:46.674Z,26.18
2017-09-22T14:35:03.801Z,26.47
2017-09-22T14:37:35.446Z,26.48
2017-09-22T14:40:07.150Z,26.47
2017-09-22T14:43:32.322Z,26.48
2017-09-22T14:46:05.366Z,26.31
2017-09-22T14:48:37.921Z,26.16
2017-09-22T14:51:29.995Z,25.95
2017-09-22T14:54:01.760Z,25.85
2017-09-22T14:56:32.907Z,25.70
2017-09-22T14:59:06.464Z,25.61
2017-09-22T15:02:13.761Z,25.48
2017-09-22T15:04:45.946Z,25.36
2017-09-22T15:07:17.491Z,25.25
2017-09-22T15:09:49.997Z,25.14
2017-09-22T15:12:21.910Z,24.99
2017-09-22T15:14:55.632Z,24.83
2017-09-22T15:17:28.716Z,24.72
2017-09-22T15:20:00.717Z,24.56
2017-09-22T15:22:32.217Z,24.44
2017-09-22T15:25:04.187Z,24.31
2017-09-22T15:27:36.352Z,24.15
2017-09-22T15:30:54.122Z,24.00
2017-09-22T15:33:27.740Z,23.82
2017-09-22T15:35:58.579Z,23.65
2017-09-22T15:38:30.874Z,23.46
2017-09-22T15:43:28.668Z,23.07
2017-09-22T15:45:59.483Z,22.89
2017-09-22T15:48:33.491Z,22.74
2017-09-22T15:51:05.137Z,22.66
2017-09-22T15:53:37.124Z,22.42
2017-09-22T15:56:21.256Z,22.29
2017-09-22T15:59:15.705Z,21.95
2017-09-22T16:01:53.603Z,21.65
2017-09-22T16:04:26.018Z,21.61
2017-09-22T16:06:57.325Z,21.91
2017-09-22T16:09:31.248Z,22.11
2017-09-22T16:12:03.264Z,22.05
2017-09-22T16:14:36.076Z,22.18
2017-09-22T16:17:08.127Z,22.13
2017-09-22T16:19:39.393Z,22.18
2017-09-22T16:22:13.171Z,22.16
2017-09-22T16:24:45.266Z,22.20
2017-09-22T16:27:18.158Z,22.18
2017-09-22T16:29:50.489Z,22.12
2017-09-22T16:32:22.174Z,22.04
2017-09-22T16:34:54.864Z,21.84
2017-09-22T16:37:26.977Z,21.81
2017-09-22T16:39:59.434Z,21.70
2017-09-22T16:42:32.168Z,21.50
2017-09-22T16:45:06.416Z,21.49
2017-09-22T16:47:37.981Z,21.44
2017-09-22T16:50:14.175Z,21.21
2017-09-22T16:52:49.776Z,20.89
2017-09-22T16:55:23.157Z,20.96
2017-09-22T16:57:57.478Z,20.91
2017-09-22T17:00:30.609Z,20.82
2017-09-22T17:03:02.080Z,20.73
2017-09-22T17:05:33.931Z,20.62
2017-09-22T17:08:26.450Z,20.47
2017-09-22T17:10:58.485Z,20.32
2017-09-22T17:13:38.759Z,20.30
2017-09-22T17:16:14.481Z,20.24
2017-09-22T17:18:46.096Z,19.88
2017-09-22T17:21:16.903Z,19.93
2017-09-22T17:23:49.584Z,19.84
2017-09-22T17:26:20.464Z,19.80
2017-09-22T17:28:51.489Z,19.78
2017-09-22T17:31:22.174Z,19.71
2017-09-22T17:33:53.223Z,19.63
2017-09-22T17:36:24.607Z,19.56
2017-09-22T17:39:00.236Z,19.43
2017-09-22T17:41:31.912Z,19.33
2017-09-22T17:44:12.705Z,19.24
2017-09-22T17:46:45.790Z,19.12
2017-09-22T17:49:17.667Z,19.05
2017-09-22T17:51:49.707Z,18.95
2017-09-22T17:54:22.307Z,18.82
2017-09-22T17:56:55.526Z,18.69
2017-09-22T17:59:26.974Z,18.55
2017-09-22T18:01:58.804Z,18.43
2017-09-22T18:04:30.403Z,18.30
2017-09-22T18:07:02.653Z,17.89
2017-09-22T18:09:33.685Z,17.90
2017-09-22T18:12:03.945Z,17.83
2017-09-22T18:14:35.563Z,17.74
2017-09-22T18:17:08.385Z,17.56
2017-09-22T18:19:43.054Z,17.27
2017-09-22T18:22:20.067Z,17.28
2017-09-22T18:24:53.048Z,17.21
2017-09-22T18:27:30.658Z,17.12
2017-09-22T18:30:03.803Z,17.01
2017-09-22T18:32:37.977Z,16.69
2017-09-22T18:35:09.423Z,16.65
2017-09-22T18:37:41.537Z,16.58
2017-09-22T18:40:15.859Z,16.46
2017-09-22T18:42:47.178Z,16.47
2017-09-22T18:45:23.012Z,16.28
2017-09-22T18:48:09.130Z,16.28
2017-09-22T18:50:41.615Z,16.35
2017-09-22T18:53:12.738Z,16.34
2017-09-22T18:55:44.585Z,16.38
2017-09-22T18:58:23.686Z,16.29
2017-09-22T19:00:55.982Z,16.27
2017-09-22T19:03:27.907Z,16.31
2017-09-22T19:06:00.118Z,16.32
2017-09-22T19:08:33.974Z,16.33
2017-09-22T19:11:06.294Z,16.38
2017-09-22T19:13:38.307Z,16.27
2017-09-22T19:16:09.318Z,16.29
2017-09-22T19:18:44.398Z,16.34
2017-09-22T19:21:17.438Z,16.38
2017-09-22T19:23:50.057Z,16.46
2017-09-22T19:26:21.132Z,16.46
2017-09-22T19:29:08.775Z,16.48
2017-09-22T19:31:46.948Z,16.48
2017-09-22T19:34:21.523Z,16.49
2017-09-22T19:36:57.109Z,16.51
2017-09-22T19:39:30.921Z,16.52
2017-09-22T19:42:03.042Z,16.54
2017-09-22T19:44:38.778Z,16.56
2017-09-22T19:47:11.988Z,16.57
2017-09-22T19:49:43.527Z,16.54
2017-09-22T19:52:15.107Z,16.56
2017-09-22T19:54:49.523Z,16.60
2017-09-22T19:57:21.044Z,16.50
2017-09-22T19:59:54.975Z,16.51
2017-09-22T20:02:26.568Z,16.46
2017-09-22T20:04:59.536Z,16.50
2017-09-22T20:07:38.057Z,16.54
2017-09-22T20:10:21.405Z,16.56
2017-09-22T20:12:59.780Z,16.45
2017-09-22T20:15:34.381Z,16.26
2017-09-22T20:18:10.718Z,16.38
2017-09-22T20:20:43.871Z,16.41
2017-09-22T20:23:30.161Z,16.44
2017-09-22T20:26:06.869Z,16.42
2017-09-22T20:28:53.428Z,16.39
2017-09-22T20:31:25.218Z,16.36
2017-09-22T20:33:58.192Z,16.42
2017-09-22T20:36:31.241Z,16.44
2017-09-22T20:39:05.701Z,16.38
2017-09-22T20:41:47.590Z,16.45
2017-09-22T20:44:19.104Z,16.46
2017-09-22T20:46:53.666Z,16.46
2017-09-22T20:49:29.447Z,16.46
2017-09-22T20:52:06.179Z,16.46
2017-09-22T20:54:37.841Z,16.42
2017-09-22T20:57:08.986Z,16.46
2017-09-22T20:59:41.064Z,16.49
2017-09-22T21:02:12.416Z,16.46
2017-09-22T21:04:43.135Z,16.44
2017-09-22T21:07:15.645Z,16.47
2017-09-22T21:09:47.227Z,16.49
2017-09-22T21:12:19.135Z,16.44
2017-09-22T21:14:50.619Z,16.43
2017-09-22T21:17:22.478Z,16.47
2017-09-22T21:19:54.806Z,16.29
2017-09-22T21:22:26.719Z,16.31
2017-09-22T21:25:16.383Z,16.29
2017-09-22T21:27:53.532Z,16.25
2017-09-22T21:30:26.343Z,16.21
2017-09-22T21:32:58.986Z,16.19
2017-09-22T21:35:29.604Z,16.12
2017-09-22T21:38:00.227Z,15.84
2017-09-22T21:40:37.111Z,15.95
2017-09-22T21:43:09.621Z,15.94
2017-09-22T21:45:43.641Z,15.93
2017-09-22T21:48:14.997Z,15.93
2017-09-22T21:50:46.991Z,15.89
2017-09-22T21:53:19.192Z,15.71
2017-09-22T21:55:52.546Z,15.77
2017-09-22T21:58:25.245Z,15.81
2017-09-22T22:00:57.240Z,15.78
2017-09-22T22:03:33.659Z,15.16
2017-09-22T22:06:11.484Z,15.08
2017-09-22T22:08:48.346Z,15.17
2017-09-22T22:11:19.657Z,15.21
2017-09-22T22:13:50.939Z,15.27
2017-09-22T22:16:22.422Z,15.22
2017-09-22T22:18:53.482Z,15.13
2017-09-22T22:21:27.049Z,15.20
2017-09-22T22:24:08.068Z,15.20
2017-09-22T22:26:40.691Z,15.31
2017-09-22T22:29:31.564Z,15.34
2017-09-22T22:32:04.368Z,15.37
2017-09-22T22:34:36.514Z,15.36
2017-09-22T22:37:10.245Z,15.39
2017-09-22T22:39:41.388Z,15.38
2017-09-22T22:42:14.703Z,15.39
2017-09-22T22:44:49.021Z,15.45
2017-09-22T22:47:22.059Z,15.42
2017-09-22T22:49:54.791Z,15.39
2017-09-22T22:52:26.664Z,15.34
2017-09-22T22:54:58.943Z,15.33
2017-09-22T22:57:30.084Z,15.13
2017-09-22T23:00:02.769Z,15.17
2017-09-22T23:02:37.934Z,15.26
2017-09-22T23:05:10.984Z,15.37
2017-09-22T23:07:42.065Z,15.43
2017-09-22T23:10:13.653Z,15.51
2017-09-22T23:12:44.604Z,15.48
2017-09-22T23:15:16.411Z,15.63
2017-09-22T23:17:49.169Z,15.73
2017-09-22T23:20:19.705Z,15.73
2017-09-22T23:22:51.742Z,15.89
2017-09-22T23:25:23.278Z,15.99
2017-09-22T23:27:54.397Z,16.06
2017-09-22T23:30:25.381Z,15.82
2017-09-22T23:32:56.623Z,15.90
2017-09-22T23:35:27.323Z,16.06
2017-09-22T23:37:59.205Z,16.11
2017-09-22T23:40:29.752Z,16.22
2017-09-22T23:43:00.718Z,16.30
2017-09-22T23:45:31.490Z,16.35
2017-09-22T23:48:03.140Z,16.42
2017-09-22T23:50:34.299Z,16.45
2017-09-22T23:53:06.297Z,16.56
2017-09-22T23:55:36.255Z,16.64
2017-09-22T23:58:08.201Z,16.67
